Impacts TAF Board INFO
FOR SITUATIONAL AWARENESS. NOT TO BE USED FOR FLIGHT PLANNING PURPOSES.
IDs:

KMCO - Orlando Intl, FL, US

Issued at 2321 UTC 21 Jan 2018
Updated at 0010 UTC 22 Jan 2018
Potential Impact None Slight Moderate High
Time2353Z 22/01Z 22/02Z 22/03Z 22/04Z 22/05Z 22/06Z 22/07Z 22/08Z 22/09Z 22/10Z 22/11Z 22/12Z 22/13Z>>
Type OBS PRVL PRVL PRVL PRVL PRVL PRVL PRVL PRVL PRVL PRVL PRVL PRVL PRVL
VIS 10 >6 >6 >6 >6 >6 >6 >6 3 3 3 3 3 3
CIG -- -- -- -- -- -- -- -- -- -- -- -- -- --
Cover CLR FEW FEW FEW SKC SKC SKC SKC SCT SCT SCT SCT SCT SCT
FltCat VFR VFR VFR VFR VFR VFR VFR VFR MVFR MVFR MVFR MVFR MVFR MVFR
WX -- -- -- -- -- -- -- -- BR BR BR BR BR BR
WDir 100 80 80 80 70 70 70 70 80 80 80 80 80 80
WSpd 7 8 8 8 4 4 4 4 3 3 3 3 3 3
WGst -- -- -- -- -- -- -- -- -- -- -- -- -- --

Raw TAF
KMCO 212321Z 2200/2306 08008KT P6SM FEW070
  FM220400 07004KT P6SM SKC
  FM220800 08003KT 3SM BR SCT010
  FM221400 13008KT P6SM FEW020 BKN050
  FM230000 13006KT P6SM SCT045 BKN120


Raw METAR
KMCO 212353Z 10007KT 10SM CLR 19/16 A3017 RMK AO2 SLP215 T01940156 10256 20194 53009
KMCO 212253Z 10008KT 10SM FEW070 21/15 A3016 RMK AO2 SLP212 T02110150
KMCO 212153Z 10010KT 10SM FEW045 23/14 A3015 RMK AO2 SLP209 T02330144

METAR Board
Radar Display
Forecast Discussion

FOR SITUATIONAL AWARENESS. NOT TO BE USED FOR FLIGHT PLANNING PURPOSES.